Time;durP1;ratioP1;P1;durP2;ratioP2;P2;SDS_P1;SDS_P2;PMS_P1;PMS_P2;Temp;Humidity;BMP_temperature;BMP_pressure;BME280_temperature;BME280_humidity;BME280_pressure;Samples;Min_cycle;Max_cycle;Signal;HPM_P1;HPM_P2
2023/09/13 00:01:51;;;;;;;14.30;12.77;;;24.00;91.10;;;;;;7397341;19;19948;-73
2023/09/13 00:04:17;;;;;;;14.95;11.75;;;24.00;91.20;;;;;;7400288;19;20256;-74
2023/09/13 00:06:43;;;;;;;18.48;12.63;;;23.90;91.30;;;;;;7400836;19;19948;-73
2023/09/13 00:09:09;;;;;;;15.55;12.35;;;24.00;91.50;;;;;;7398515;19;20438;-72
2023/09/13 00:11:38;;;;;;;15.27;12.30;;;23.90;91.50;;;;;;7398471;19;19914;-73
2023/09/13 00:14:04;;;;;;;15.48;13.10;;;23.90;91.50;;;;;;7397571;19;20313;-73
2023/09/13 00:16:30;;;;;;;15.52;12.55;;;23.90;91.50;;;;;;7398852;19;19991;-73
2023/09/13 00:18:56;;;;;;;16.30;13.35;;;23.90;91.60;;;;;;7400594;19;19930;-73
2023/09/13 00:21:22;;;;;;;16.75;13.65;;;23.90;91.60;;;;;;7395630;19;19943;-74
2023/09/13 00:23:48;;;;;;;15.77;13.88;;;23.90;91.50;;;;;;7400924;19;19926;-73
2023/09/13 00:26:14;;;;;;;15.98;13.90;;;23.90;91.60;;;;;;7396393;19;19970;-74
2023/09/13 00:28:40;;;;;;;17.73;12.88;;;23.90;91.40;;;;;;7401690;19;20355;-73
2023/09/13 00:31:09;;;;;;;17.17;13.43;;;23.90;91.40;;;;;;7397085;19;19942;-76
2023/09/13 00:33:36;;;;;;;14.73;13.00;;;23.90;91.30;;;;;;7399866;19;19979;-72
2023/09/13 00:36:02;;;;;;;16.95;13.60;;;23.80;91.30;;;;;;7396859;19;19918;-74
2023/09/13 00:38:28;;;;;;;16.15;13.23;;;23.80;91.30;;;;;;7399496;19;19914;-75
2023/09/13 00:40:54;;;;;;;18.67;12.90;;;23.90;91.30;;;;;;7398623;19;19921;-74
2023/09/13 00:43:20;;;;;;;17.55;13.15;;;23.80;91.10;;;;;;7346618;19;20382;-75
2023/09/13 00:45:48;;;;;;;17.20;12.82;;;23.80;91.10;;;;;;7398495;19;20436;-73
2023/09/13 00:48:15;;;;;;;15.23;12.10;;;23.80;91.10;;;;;;7399916;19;19918;-75
2023/09/13 00:50:42;;;;;;;17.90;12.63;;;23.80;91.10;;;;;;7399469;19;20288;-76
2023/09/13 00:53:09;;;;;;;18.05;13.20;;;23.80;91.10;;;;;;7365861;19;19947;-74
2023/09/13 00:55:36;;;;;;;17.05;13.13;;;23.80;91.10;;;;;;7399255;19;19918;-74
2023/09/13 00:58:05;;;;;;;18.15;13.52;;;23.90;91.20;;;;;;7398090;19;19915;-74
2023/09/13 01:00:32;;;;;;;17.98;13.15;;;23.80;91.10;;;;;;7401445;19;19914;-73
2023/09/13 01:02:59;;;;;;;18.48;14.00;;;23.90;91.20;;;;;;7375261;19;19956;-73
2023/09/13 01:05:26;;;;;;;15.93;14.02;;;23.80;91.30;;;;;;7404221;19;19921;-75
2023/09/13 01:07:51;;;;;;;17.55;13.95;;;23.80;91.50;;;;;;7375438;19;19924;-73
2023/09/13 01:10:19;;;;;;;16.23;13.63;;;23.80;91.60;;;;;;7406182;19;19918;-74
2023/09/13 01:12:45;;;;;;;18.05;14.55;;;23.80;91.70;;;;;;7404906;19;20490;-74
2023/09/13 01:15:12;;;;;;;20.98;13.90;;;23.80;92.00;;;;;;7403372;19;19910;-74
2023/09/13 01:17:44;;;;;;;17.95;14.05;;;23.80;92.10;;;;;;7374318;19;20617;-74
2023/09/13 01:20:16;;;;;;;17.30;13.45;;;23.80;92.00;;;;;;7405948;19;19922;-74
2023/09/13 01:23:10;;;;;;;17.10;13.75;;;23.90;92.00;;;;;;7404556;19;19923;-73
2023/09/13 01:26:13;;;;;;;16.35;12.85;;;23.90;91.90;;;;;;7404464;19;19935;-74
2023/09/13 01:28:44;;;;;;;18.52;14.15;;;24.00;92.00;;;;;;7402459;19;19921;-74
2023/09/13 01:31:11;;;;;;;14.73;12.43;;;24.00;92.40;;;;;;7403874;19;19966;-74
2023/09/13 01:33:37;;;;;;;17.15;11.80;;;24.00;92.20;;;;;;7404162;19;20465;-73
2023/09/13 01:36:04;;;;;;;;;;;24.00;92.30;;;;;;7405485;19;20343;-74
2023/09/13 01:38:30;;;;;;;16.70;13.25;;;24.00;92.40;;;;;;7404137;19;19915;-74
2023/09/13 01:41:09;;;;;;;16.08;12.80;;;24.00;92.60;;;;;;7402208;19;19930;-74
2023/09/13 01:43:35;;;;;;;15.35;12.93;;;24.00;92.50;;;;;;7403975;19;19906;-74
2023/09/13 01:46:03;;;;;;;14.52;12.52;;;24.00;92.60;;;;;;7403632;19;19938;-74
2023/09/13 01:48:30;;;;;;;14.55;12.52;;;23.90;92.80;;;;;;7404434;19;19950;-74
2023/09/13 01:50:58;;;;;;;17.70;13.27;;;24.00;92.80;;;;;;7404576;19;19927;-72
2023/09/13 01:53:24;;;;;;;15.15;12.55;;;23.90;93.10;;;;;;7402455;19;19929;-73
2023/09/13 01:55:50;;;;;;;15.23;11.23;;;23.80;93.30;;;;;;7403027;19;20679;-74
2023/09/13 01:58:16;;;;;;;16.38;12.40;;;23.80;93.40;;;;;;7405561;19;19918;-74
2023/09/13 02:00:42;;;;;;;17.17;13.10;;;23.70;93.40;;;;;;7371576;19;20267;-74
2023/09/13 02:03:07;;;;;;;17.05;12.05;;;23.70;93.20;;;;;;7401373;19;19926;-74
2023/09/13 02:05:33;;;;;;;15.73;12.35;;;23.60;92.80;;;;;;7403637;19;20490;-74
2023/09/13 02:07:59;;;;;;;13.55;11.88;;;23.60;92.40;;;;;;7405077;19;19922;-75
2023/09/13 02:10:25;;;;;;;13.85;12.38;;;23.50;92.00;;;;;;7403359;19;20302;-74
2023/09/13 02:12:51;;;;;;;14.63;11.15;;;23.50;91.70;;;;;;7400789;19;19923;-74
2023/09/13 02:15:18;;;;;;;12.77;9.90;;;23.50;91.10;;;;;;7402490;19;19914;-73
2023/09/13 02:17:43;;;;;;;12.90;10.15;;;23.50;90.80;;;;;;7400968;19;19914;-72
2023/09/13 02:20:13;;;;;;;13.27;9.05;;;23.60;90.70;;;;;;7397626;19;19918;-73
2023/09/13 02:22:38;;;;;;;12.02;10.10;;;23.50;90.60;;;;;;7401946;19;19922;-71
2023/09/13 02:25:05;;;;;;;10.40;9.10;;;23.60;90.60;;;;;;7401807;19;20573;-71
2023/09/13 02:27:32;;;;;;;13.57;9.85;;;23.60;90.70;;;;;;7400572;19;19922;-71
2023/09/13 02:29:58;;;;;;;13.23;10.13;;;23.60;90.80;;;;;;7369269;19;19926;-72
2023/09/13 02:32:24;;;;;;;13.20;9.43;;;23.60;90.80;;;;;;7402097;19;19929;-73
2023/09/13 02:34:50;;;;;;;14.07;10.00;;;23.60;90.90;;;;;;7400231;19;19915;-73
2023/09/13 02:37:16;;;;;;;11.82;10.02;;;23.60;91.00;;;;;;7400947;19;19919;-71
2023/09/13 02:39:42;;;;;;;11.85;9.93;;;23.60;90.90;;;;;;7400121;19;19926;-72
2023/09/13 02:42:08;;;;;;;13.00;9.35;;;23.50;90.60;;;;;;7400611;19;19922;-73
2023/09/13 02:44:37;;;;;;;12.25;8.23;;;23.40;89.80;;;;;;7369264;19;20243;-73
2023/09/13 02:47:03;;;;;;;12.13;8.48;;;23.40;88.20;;;;;;7402252;19;19926;-72
2023/09/13 02:49:28;;;;;;;12.07;8.65;;;23.30;88.50;;;;;;7393274;19;19928;-72
2023/09/13 02:51:55;;;;;;;12.35;8.27;;;23.30;88.40;;;;;;7402881;19;20237;-72
2023/09/13 02:54:21;;;;;;;12.95;9.00;;;23.30;88.50;;;;;;7398160;19;19914;-71
2023/09/13 02:56:55;;;;;;;12.40;8.13;;;23.30;87.90;;;;;;7395613;19;19987;-72
2023/09/13 02:59:21;;;;;;;9.10;7.60;;;23.30;87.20;;;;;;7401040;19;20265;-71
2023/09/13 03:01:48;;;;;;;10.82;7.78;;;23.30;86.90;;;;;;7400968;19;19918;-72
2023/09/13 03:04:14;;;;;;;11.55;7.57;;;23.30;86.10;;;;;;7402176;19;19925;-72
2023/09/13 03:06:40;;;;;;;9.75;7.22;;;23.30;85.40;;;;;;7381140;19;20014;-72
2023/09/13 03:09:06;;;;;;;8.70;7.60;;;23.30;84.80;;;;;;7399223;19;20324;-72
2023/09/13 03:11:35;;;;;;;9.70;6.72;;;23.30;84.30;;;;;;7400629;19;19923;-72
2023/09/13 03:14:01;;;;;;;12.27;7.45;;;23.30;82.70;;;;;;7401134;19;19939;-72
2023/09/13 03:16:27;;;;;;;11.13;6.85;;;23.30;82.20;;;;;;7398726;19;20678;-73
2023/09/13 03:18:54;;;;;;;8.82;6.90;;;23.30;81.10;;;;;;7401472;19;19926;-72
2023/09/13 03:21:20;;;;;;;9.05;6.50;;;23.30;80.80;;;;;;7398887;19;19933;-72
2023/09/13 03:23:50;;;;;;;8.60;6.20;;;23.30;80.60;;;;;;7399830;19;19915;-72
2023/09/13 03:26:33;;;;;;;8.52;5.90;;;23.40;79.00;;;;;;7400657;19;19919;-72
2023/09/13 03:28:59;;;;;;;8.68;6.22;;;23.20;77.80;;;;;;7403139;19;19923;-71
2023/09/13 03:31:26;;;;;;;8.80;5.90;;;23.20;77.30;;;;;;7399490;19;19911;-72
2023/09/13 03:33:54;;;;;;;9.85;5.57;;;23.20;77.00;;;;;;7402069;19;19932;-73
2023/09/13 03:36:21;;;;;;;8.20;6.28;;;23.20;77.00;;;;;;7400177;19;19960;-72
2023/09/13 03:38:47;;;;;;;7.15;5.38;;;23.20;76.90;;;;;;7399994;19;20335;-73
2023/09/13 03:41:16;;;;;;;6.80;5.18;;;23.10;76.70;;;;;;7400217;19;20243;-72
2023/09/13 03:43:41;;;;;;;7.45;5.13;;;23.10;76.70;;;;;;7402645;19;19936;-72
2023/09/13 03:46:08;;;;;;;7.75;5.45;;;23.00;76.70;;;;;;7400155;19;19914;-72
2023/09/13 03:48:36;;;;;;;8.18;5.82;;;23.00;76.70;;;;;;7399465;19;19954;-72
2023/09/13 03:51:03;;;;;;;9.45;5.07;;;23.00;76.70;;;;;;7397885;19;20365;-72
2023/09/13 03:53:29;;;;;;;7.30;5.45;;;23.00;76.70;;;;;;7399375;19;20290;-73
2023/09/13 03:55:55;;;;;;;8.43;5.70;;;23.00;77.30;;;;;;7402602;19;20002;-72
2023/09/13 03:58:23;;;;;;;8.35;5.80;;;22.90;78.30;;;;;;7389025;19;19910;-73
2023/09/13 04:00:49;;;;;;;8.32;5.68;;;22.90;78.30;;;;;;7400709;19;20022;-72
2023/09/13 04:03:19;;;;;;;9.57;6.65;;;22.90;78.60;;;;;;7396464;19;19944;-73
2023/09/13 04:05:45;;;;;;;8.27;6.18;;;22.90;79.20;;;;;;7402002;19;19934;-72
2023/09/13 04:08:11;;;;;;;9.85;6.82;;;22.90;79.60;;;;;;7398884;19;19914;-71
2023/09/13 04:10:37;;;;;;;12.60;6.45;;;23.00;80.20;;;;;;7399201;19;19926;-72
2023/09/13 04:13:04;;;;;;;7.40;6.20;;;23.00;80.60;;;;;;7399378;19;19918;-72
2023/09/13 04:15:30;;;;;;;8.57;6.88;;;23.00;80.70;;;;;;7398146;19;19917;-72
2023/09/13 04:17:56;;;;;;;9.38;7.00;;;23.10;80.80;;;;;;7401654;19;19936;-73
2023/09/13 04:20:23;;;;;;;8.65;7.20;;;23.10;81.00;;;;;;7375518;19;19923;-73
2023/09/13 04:22:49;;;;;;;9.02;6.47;;;23.20;81.00;;;;;;7399041;19;20256;-72
2023/09/13 04:25:16;;;;;;;10.65;8.23;;;23.20;81.40;;;;;;7397918;19;19929;-72
2023/09/13 04:27:48;;;;;;;11.48;7.47;;;23.20;81.90;;;;;;7398070;19;20024;-73
2023/09/13 04:30:17;;;;;;;10.40;7.55;;;23.20;82.50;;;;;;7353750;19;19918;-72
2023/09/13 04:32:47;;;;;;;10.13;7.82;;;23.20;82.90;;;;;;7398842;19;19921;-72
2023/09/13 04:35:13;;;;;;;9.77;7.57;;;23.30;83.00;;;;;;7400482;19;19966;-72
2023/09/13 04:37:39;;;;;;;10.45;7.57;;;23.30;82.40;;;;;;7404583;19;19952;-72
2023/09/13 04:40:05;;;;;;;8.23;6.53;;;23.30;82.20;;;;;;7402910;19;19923;-72
2023/09/13 04:42:42;;;;;;;9.07;6.85;;;23.40;82.90;;;;;;7404011;19;19918;-72
2023/09/13 04:45:08;;;;;;;9.27;7.43;;;23.30;82.60;;;;;;7403540;19;19918;-71
2023/09/13 04:47:35;;;;;;;10.50;7.13;;;23.40;82.20;;;;;;7356069;19;19910;-72
2023/09/13 04:50:02;;;;;;;10.63;7.75;;;23.30;82.30;;;;;;7402452;19;19946;-72
2023/09/13 04:52:28;;;;;;;11.45;7.47;;;23.30;83.00;;;;;;7401306;19;20276;-73
2023/09/13 04:54:53;;;;;;;10.73;7.78;;;23.30;83.40;;;;;;7405440;19;19954;-73
2023/09/13 04:57:19;;;;;;;9.43;7.82;;;23.30;83.80;;;;;;7400947;19;19911;-71
2023/09/13 04:59:48;;;;;;;14.43;8.00;;;23.20;84.70;;;;;;7407233;19;19931;-73
2023/09/13 05:02:14;;;;;;;13.65;7.35;;;23.00;85.70;;;;;;7395710;19;19978;-73
2023/09/13 05:04:41;;;;;;;13.75;8.00;;;22.80;87.00;;;;;;7400451;19;19915;-72
2023/09/13 05:07:07;;;;;;;13.43;7.38;;;22.80;88.10;;;;;;7400799;19;19922;-72
2023/09/13 05:09:35;;;;;;;15.65;7.70;;;22.80;89.40;;;;;;7404424;19;19922;-73
2023/09/13 05:12:01;;;;;;;12.55;7.80;;;22.70;88.90;;;;;;7406041;19;19944;-72
2023/09/13 05:14:28;;;;;;;12.32;8.27;;;22.70;88.80;;;;;;7404226;19;19926;-73
2023/09/13 05:16:53;;;;;;;13.00;8.40;;;22.70;88.50;;;;;;7405328;19;19939;-72
2023/09/13 05:19:19;;;;;;;12.98;7.93;;;22.80;88.90;;;;;;7400721;19;19915;-72
2023/09/13 05:21:47;;;;;;;11.38;8.52;;;22.70;88.00;;;;;;7401879;19;19927;-72
2023/09/13 05:24:12;;;;;;;11.63;7.90;;;22.70;88.00;;;;;;7401026;19;20002;-73
2023/09/13 05:26:39;;;;;;;17.63;8.48;;;22.70;87.80;;;;;;7405185;19;19911;-72
2023/09/13 05:29:04;;;;;;;14.88;8.13;;;22.70;87.70;;;;;;7404601;19;19931;-72
2023/09/13 05:31:31;;;;;;;11.10;7.78;;;22.70;87.60;;;;;;7404769;19;20338;-72
2023/09/13 05:33:58;;;;;;;12.40;8.90;;;22.80;87.50;;;;;;7405893;19;19922;-72
2023/09/13 05:36:24;;;;;;;13.18;8.07;;;22.70;87.40;;;;;;7402155;19;19919;-72
2023/09/13 05:38:50;;;;;;;14.80;7.38;;;22.80;87.20;;;;;;7403530;19;20342;-72
2023/09/13 05:41:16;;;;;;;12.98;7.65;;;22.80;87.60;;;;;;7400799;19;19926;-73
2023/09/13 05:43:42;;;;;;;11.43;8.07;;;22.80;87.90;;;;;;7403985;19;19922;-73
2023/09/13 05:46:09;;;;;;;11.55;8.32;;;22.70;87.90;;;;;;7400974;19;19910;-71
2023/09/13 05:48:37;;;;;;;11.93;7.35;;;22.80;87.90;;;;;;7397835;19;20014;-72
2023/09/13 05:51:04;;;;;;;11.60;7.03;;;22.70;88.20;;;;;;7400778;19;19923;-71
2023/09/13 05:53:30;;;;;;;11.48;7.88;;;22.70;87.80;;;;;;7399138;19;19931;-73
2023/09/13 05:55:57;;;;;;;11.38;7.18;;;22.70;88.00;;;;;;7399278;19;19923;-72
2023/09/13 05:58:22;;;;;;;14.23;6.63;;;22.70;87.90;;;;;;7399966;19;19935;-72
2023/09/13 06:00:50;;;;;;;9.93;7.75;;;22.70;87.80;;;;;;7397319;19;19930;-72
2023/09/13 06:03:17;;;;;;;11.90;6.35;;;22.70;87.80;;;;;;7368818;19;19919;-73
2023/09/13 06:05:44;;;;;;;9.85;6.28;;;22.70;88.20;;;;;;7391860;19;20133;-71
2023/09/13 06:08:10;;;;;;;11.73;6.75;;;22.80;88.80;;;;;;7383187;19;19934;-71
2023/09/13 06:10:36;;;;;;;10.43;5.53;;;22.80;89.00;;;;;;7402241;19;19918;-73
2023/09/13 06:13:01;;;;;;;10.00;5.15;;;22.80;89.00;;;;;;7403145;19;20361;-72
2023/09/13 06:15:27;;;;;;;12.50;6.40;;;22.80;89.00;;;;;;7402185;19;19919;-72
2023/09/13 06:17:54;;;;;;;9.98;5.88;;;22.90;89.10;;;;;;7402751;19;19947;-72
2023/09/13 06:20:21;;;;;;;10.55;6.65;;;22.90;89.30;;;;;;7403027;19;19922;-72
2023/09/13 06:22:47;;;;;;;9.52;7.25;;;22.90;89.70;;;;;;7401399;19;19955;-73
2023/09/13 06:25:16;;;;;;;11.57;6.93;;;22.90;90.00;;;;;;7399876;19;19923;-72
2023/09/13 06:27:45;;;;;;;14.48;6.90;;;23.00;90.00;;;;;;7400873;19;19934;-71
2023/09/13 06:30:13;;;;;;;10.48;6.30;;;23.10;89.40;;;;;;7397545;19;19919;-72
2023/09/13 06:32:39;;;;;;;11.13;6.93;;;23.20;88.80;;;;;;7388090;19;19921;-72
2023/09/13 06:35:08;;;;;;;13.55;7.60;;;23.20;88.00;;;;;;7392898;19;19966;-73
2023/09/13 06:37:34;;;;;;;12.60;7.28;;;23.20;87.50;;;;;;7386492;19;19919;-73
2023/09/13 06:40:00;;;;;;;10.45;7.38;;;23.30;87.10;;;;;;7391432;19;19918;-73
2023/09/13 06:42:25;;;;;;;10.20;6.90;;;23.40;86.50;;;;;;7388618;19;19948;-72
2023/09/13 06:44:52;;;;;;;12.23;7.22;;;23.50;86.10;;;;;;7392119;19;19929;-72
2023/09/13 06:47:18;;;;;;;10.43;6.18;;;23.50;85.50;;;;;;7392918;19;20020;-72
2023/09/13 06:49:44;;;;;;;10.10;6.57;;;23.60;84.70;;;;;;7389711;19;19952;-72
2023/09/13 06:52:09;;;;;;;11.88;7.40;;;23.70;84.00;;;;;;7400243;19;20367;-72
2023/09/13 06:54:35;;;;;;;10.43;6.60;;;23.70;82.80;;;;;;7401594;19;20271;-72
2023/09/13 06:57:01;;;;;;;8.15;5.30;;;23.80;82.50;;;;;;7403229;19;19918;-73
2023/09/13 06:59:27;;;;;;;7.55;5.00;;;23.90;80.70;;;;;;7400212;19;19914;-73
2023/09/13 07:01:52;;;;;;;6.72;4.60;;;24.00;76.80;;;;;;7401180;19;19922;-73
2023/09/13 07:04:19;;;;;;;9.52;5.15;;;24.20;76.30;;;;;;7400318;19;19914;-73
2023/09/13 07:06:45;;;;;;;7.55;6.75;;;24.30;76.00;;;;;;7402121;19;19925;-73
2023/09/13 07:09:11;;;;;;;7.30;5.30;;;24.30;75.80;;;;;;7396597;19;20525;-72
2023/09/13 07:11:38;;;;;;;6.47;4.60;;;24.20;73.20;;;;;;7399258;19;19918;-72
2023/09/13 07:14:04;;;;;;;9.52;5.05;;;24.30;73.00;;;;;;7393454;19;20326;-72
2023/09/13 07:16:29;;;;;;;6.53;3.78;;;24.20;72.40;;;;;;7398744;19;19922;-73
2023/09/13 07:18:55;;;;;;;4.93;3.50;;;24.30;70.20;;;;;;7397595;19;19926;-72
2023/09/13 07:21:21;;;;;;;4.90;2.92;;;24.30;68.50;;;;;;7400863;19;20332;-72
2023/09/13 07:23:47;;;;;;;7.68;4.38;;;24.30;68.50;;;;;;7400021;19;20371;-72
2023/09/13 07:26:14;;;;;;;6.03;4.28;;;24.40;68.90;;;;;;7397150;19;19999;-72
2023/09/13 07:28:40;;;;;;;5.57;4.30;;;24.50;68.60;;;;;;7394377;19;19915;-73
2023/09/13 07:31:09;;;;;;;7.63;4.10;;;24.60;68.00;;;;;;7393038;19;20827;-71
2023/09/13 07:33:35;;;;;;;6.47;3.88;;;24.70;67.30;;;;;;7402164;19;19930;-74
2023/09/13 07:36:02;;;;;;;5.70;4.18;;;24.70;67.10;;;;;;7396096;19;19921;-73
2023/09/13 07:38:28;;;;;;;9.30;4.90;;;24.60;66.80;;;;;;7373000;19;19915;-75
2023/09/13 07:40:54;;;;;;;8.90;5.07;;;24.70;66.60;;;;;;7396311;19;19929;-75
2023/09/13 07:43:19;;;;;;;7.68;5.38;;;24.70;66.30;;;;;;7399222;19;20267;-75
2023/09/13 07:45:46;;;;;;;8.00;5.20;;;24.70;66.00;;;;;;7395017;19;19914;-73
2023/09/13 07:48:12;;;;;;;7.68;4.75;;;24.70;65.70;;;;;;7395012;19;19922;-73
2023/09/13 07:50:44;;;;;;;6.65;4.88;;;24.60;65.70;;;;;;7392454;19;19915;-76
2023/09/13 07:53:11;;;;;;;6.10;4.45;;;24.60;65.50;;;;;;7392122;19;19929;-76
2023/09/13 07:55:37;;;;;;;8.82;4.68;;;24.70;65.70;;;;;;7391488;19;19970;-74
2023/09/13 07:58:04;;;;;;;7.15;4.35;;;24.90;65.30;;;;;;7392170;19;19919;-75
2023/09/13 08:00:30;;;;;;;6.43;4.47;;;25.00;64.30;;;;;;7398493;19;20686;-74
2023/09/13 08:02:58;;;;;;;7.05;5.43;;;25.10;63.90;;;;;;7391113;19;19923;-74
2023/09/13 08:05:24;;;;;;;11.13;5.40;;;25.20;63.20;;;;;;7393513;19;19922;-75
2023/09/13 08:07:51;;;;;;;8.85;5.50;;;25.30;63.10;;;;;;7391703;19;19921;-75
2023/09/13 08:10:17;;;;;;;6.30;4.75;;;25.30;63.20;;;;;;7393689;19;19915;-75
2023/09/13 08:12:43;;;;;;;6.70;4.57;;;25.40;62.40;;;;;;7399525;19;19955;-77
2023/09/13 08:15:09;;;;;;;6.28;4.45;;;25.50;61.50;;;;;;7396616;19;19922;-75
2023/09/13 08:17:35;;;;;;;6.43;4.25;;;25.50;60.30;;;;;;7396605;19;20952;-75
2023/09/13 08:20:05;;;;;;;6.80;4.15;;;25.50;60.80;;;;;;7396493;19;19919;-74
2023/09/13 08:22:31;;;;;;;7.68;4.50;;;25.50;60.50;;;;;;7393089;19;19918;-74
2023/09/13 08:24:56;;;;;;;6.53;4.60;;;25.60;60.60;;;;;;7395934;19;19922;-73
2023/09/13 08:27:22;;;;;;;8.13;4.47;;;25.70;60.30;;;;;;7397919;19;20315;-72
2023/09/13 08:29:48;;;;;;;7.40;4.38;;;25.60;60.50;;;;;;7397639;19;19922;-74
2023/09/13 08:32:14;;;;;;;7.72;4.60;;;25.80;60.00;;;;;;7365642;19;19925;-73
2023/09/13 08:34:40;;;;;;;7.22;4.50;;;25.90;59.80;;;;;;7398336;19;19925;-73
2023/09/13 08:37:06;;;;;;;8.18;5.20;;;25.90;59.50;;;;;;7394618;19;19933;-72
2023/09/13 08:39:32;;;;;;;9.05;4.93;;;26.10;59.40;;;;;;7395596;19;19948;-73
2023/09/13 08:41:58;;;;;;;8.25;4.70;;;26.30;59.00;;;;;;7393079;19;19926;-73
2023/09/13 08:44:26;;;;;;;6.63;4.18;;;26.50;58.40;;;;;;7395379;19;19963;-74
2023/09/13 08:46:57;;;;;;;6.47;4.25;;;26.60;58.00;;;;;;7366552;19;19990;-73
2023/09/13 08:49:24;;;;;;;7.70;4.20;;;26.70;57.00;;;;;;7395240;19;20383;-73
2023/09/13 08:51:53;;;;;;;7.30;5.38;;;26.60;56.50;;;;;;7395560;19;19923;-73
2023/09/13 08:54:22;;;;;;;6.95;4.57;;;26.50;56.70;;;;;;7395281;19;20278;-74
2023/09/13 08:56:48;;;;;;;6.88;5.20;;;26.50;56.50;;;;;;7398778;19;19914;-72
2023/09/13 08:59:16;;;;;;;9.65;4.82;;;26.70;56.20;;;;;;7396364;19;19922;-73
2023/09/13 09:01:52;;;;;;;7.75;5.13;;;26.70;55.60;;;;;;7396821;19;19922;-72
2023/09/13 09:04:19;;;;;;;6.30;4.70;;;26.40;56.40;;;;;;7337832;19;19907;-73
2023/09/13 09:06:47;;;;;;;7.13;4.93;;;26.30;56.50;;;;;;7400482;19;19937;-73
2023/09/13 09:09:18;;;;;;;9.45;5.00;;;26.10;57.00;;;;;;7394304;19;19929;-73
2023/09/13 09:11:49;;;;;;;8.52;5.00;;;26.20;56.80;;;;;;7395582;19;19930;-73
2023/09/13 09:14:16;;;;;;;8.13;5.07;;;26.70;57.30;;;;;;7394202;19;19918;-73
2023/09/13 09:16:44;;;;;;;6.55;5.10;;;26.90;55.40;;;;;;7392185;19;19927;-73
2023/09/13 09:19:11;;;;;;;6.13;5.07;;;26.70;54.80;;;;;;7390136;19;19928;-73
2023/09/13 09:21:39;;;;;;;6.97;4.72;;;26.80;55.20;;;;;;7368894;19;20240;-72
2023/09/13 09:24:05;;;;;;;9.10;4.95;;;27.10;54.50;;;;;;7391018;19;19923;-72
2023/09/13 09:26:31;;;;;;;;;;;27.40;53.80;;;;;;7399562;19;19915;-72
2023/09/13 09:29:13;;;;;;;7.50;4.47;;;27.60;53.70;;;;;;7393868;19;19978;-72
2023/09/13 09:31:40;;;;;;;8.10;4.63;;;27.70;53.30;;;;;;7393775;19;19982;-72
2023/09/13 09:34:05;;;;;;;;;;;28.20;52.30;;;;;;7401911;19;19915;-72
2023/09/13 09:36:38;;;;;;;6.63;4.60;;;28.80;51.20;;;;;;7400926;19;19925;-73
2023/09/13 09:39:05;;;;;;;9.65;4.88;;;28.50;50.10;;;;;;7398047;19;19922;-72
2023/09/13 09:41:34;;;;;;;8.20;5.15;;;28.60;50.20;;;;;;7400634;19;19940;-73
2023/09/13 09:43:59;;;;;;;7.68;4.85;;;28.60;49.90;;;;;;7399491;19;19926;-71
2023/09/13 09:46:25;;;;;;;11.55;4.88;;;28.80;49.10;;;;;;7398747;19;19926;-72
2023/09/13 09:48:52;;;;;;;5.75;4.20;;;28.80;48.50;;;;;;7400318;19;19930;-72
2023/09/13 09:51:18;;;;;;;10.10;4.75;;;28.80;48.50;;;;;;7394872;19;20371;-73
2023/09/13 09:53:47;;;;;;;9.23;5.15;;;29.00;47.90;;;;;;7398910;19;20661;-72
2023/09/13 09:56:13;;;;;;;7.53;4.85;;;29.30;47.50;;;;;;7399994;19;19999;-72
2023/09/13 09:58:40;;;;;;;7.32;5.10;;;29.60;46.60;;;;;;7391588;19;19938;-71
2023/09/13 10:01:06;;;;;;;6.40;4.35;;;29.80;45.90;;;;;;7401135;19;19939;-72
2023/09/13 10:03:35;;;;;;;6.63;3.30;;;29.30;45.40;;;;;;7400352;19;19922;-72
2023/09/13 10:06:15;;;;;;;8.10;4.40;;;29.40;46.10;;;;;;7402257;19;19926;-72
2023/09/13 10:08:46;;;;;;;7.13;4.35;;;29.30;45.30;;;;;;7401405;19;19922;-72
2023/09/13 10:11:16;;;;;;;6.95;4.63;;;29.30;45.70;;;;;;7399559;19;19982;-72
2023/09/13 10:13:46;;;;;;;12.02;4.93;;;29.50;45.30;;;;;;7399904;19;20006;-72
2023/09/13 10:16:16;;;;;;;8.82;4.97;;;29.90;44.70;;;;;;7399942;19;19914;-72
2023/09/13 10:18:51;;;;;;;9.77;5.07;;;29.90;43.90;;;;;;7399147;19;19918;-72
2023/09/13 10:21:25;;;;;;;7.82;4.72;;;30.10;43.40;;;;;;7397374;19;19945;-72
2023/09/13 10:24:06;;;;;;;10.35;4.45;;;29.90;43.10;;;;;;7398550;19;19922;-72
2023/09/13 10:26:34;;;;;;;10.60;4.75;;;29.80;42.80;;;;;;7398637;19;20781;-72
2023/09/13 10:29:10;;;;;;;8.30;4.80;;;29.60;43.30;;;;;;7400290;19;20344;-72
2023/09/13 10:31:41;;;;;;;7.53;4.80;;;29.40;43.40;;;;;;7398643;19;20015;-72
2023/09/13 10:34:14;;;;;;;7.00;4.55;;;29.00;43.90;;;;;;7397349;19;19910;-71
2023/09/13 10:36:47;;;;;;;7.22;3.35;;;28.90;43.60;;;;;;7400557;19;20396;-73
2023/09/13 10:39:23;;;;;;;6.72;4.40;;;28.60;44.40;;;;;;7400952;19;19929;-72
2023/09/13 10:41:58;;;;;;;5.68;4.60;;;28.50;44.70;;;;;;7403440;19;19911;-72
2023/09/13 10:44:24;;;;;;;6.95;3.97;;;28.00;45.20;;;;;;7400492;19;19930;-73
2023/09/13 10:46:50;;;;;;;8.23;4.25;;;28.20;44.40;;;;;;7401884;19;20355;-73
2023/09/13 10:49:16;;;;;;;9.57;4.43;;;28.30;44.00;;;;;;7399677;19;19936;-73
2023/09/13 10:51:43;;;;;;;6.45;4.05;;;28.30;43.70;;;;;;7402949;19;20793;-73
2023/09/13 10:54:09;;;;;;;9.23;4.25;;;28.30;43.90;;;;;;7401840;19;20238;-73
2023/09/13 10:56:35;;;;;;;;;;;28.60;43.60;;;;;;7403491;19;20399;-74
2023/09/13 10:59:01;;;;;;;4.68;3.50;;;29.50;41.10;;;;;;7399137;19;19917;-75
2023/09/13 11:01:27;;;;;;;6.40;3.83;;;29.90;39.70;;;;;;7396685;19;19925;-74
2023/09/13 11:03:54;;;;;;;6.25;3.92;;;30.50;38.40;;;;;;7397175;19;19918;-73
2023/09/13 11:06:24;;;;;;;7.70;4.13;;;30.00;37.40;;;;;;7396506;19;19981;-74
2023/09/13 11:08:50;;;;;;;5.88;4.05;;;30.50;37.50;;;;;;7400904;19;19911;-74
2023/09/13 11:11:18;;;;;;;7.22;3.13;;;30.70;37.20;;;;;;7399148;19;19930;-73
2023/09/13 11:13:52;;;;;;;6.07;3.42;;;30.90;35.70;;;;;;7398196;19;20277;-74
2023/09/13 11:16:18;;;;;;;4.93;3.33;;;31.20;35.00;;;;;;7399242;19;19915;-73
2023/09/13 11:18:55;;;;;;;6.82;3.92;;;31.50;34.70;;;;;;7401561;19;19930;-73
2023/09/13 11:21:44;;;;;;;4.95;3.85;;;30.70;35.10;;;;;;7396509;19;19934;-74
2023/09/13 11:24:11;;;;;;;6.20;3.30;;;31.60;35.00;;;;;;7399232;19;20251;-75
2023/09/13 11:26:46;;;;;;;6.40;3.72;;;32.40;33.20;;;;;;7399603;19;19914;-74
2023/09/13 11:29:25;;;;;;;6.75;3.45;;;32.00;33.30;;;;;;7396416;19;20267;-74
2023/09/13 11:31:59;;;;;;;5.78;3.47;;;31.40;35.00;;;;;;7396701;19;20283;-75
2023/09/13 11:34:25;;;;;;;6.32;3.45;;;31.00;35.10;;;;;;7395201;19;19941;-76
2023/09/13 11:36:56;;;;;;;;;;;31.00;34.80;;;;;;7397155;19;19910;-75
2023/09/13 11:39:22;;;;;;;5.50;4.70;;;31.10;36.50;;;;;;7339524;19;19941;-76
2023/09/13 11:41:48;;;;;;;;;;;30.90;37.60;;;;;;7399782;19;19915;-75
2023/09/13 11:44:13;;;;;;;9.27;6.07;;;31.50;38.20;;;;;;7396357;19;19938;-75
2023/09/13 11:46:39;;;;;;;;;;;32.00;36.90;;;;;;7404978;19;19939;-75
2023/09/13 11:49:06;;;;;;;6.65;5.38;;;32.00;36.90;;;;;;7396448;19;19930;-75
2023/09/13 11:51:32;;;;;;;8.73;5.50;;;31.80;36.90;;;;;;7396736;19;19926;-74
2023/09/13 11:54:15;;;;;;;8.18;6.05;;;31.70;38.10;;;;;;7400292;19;19949;-74
2023/09/13 11:56:45;;;;;;;8.32;5.85;;;31.60;38.50;;;;;;7380996;19;19918;-75
2023/09/13 11:59:13;;;;;;;9.95;7.30;;;31.80;39.40;;;;;;7383326;19;19930;-74
2023/09/13 12:01:43;;;;;;;9.18;4.45;;;32.70;38.30;;;;;;7393859;19;19944;-76
2023/09/13 12:04:09;;;;;;;13.20;6.78;;;32.90;38.00;;;;;;7395287;19;19923;-74
2023/09/13 12:06:47;;;;;;;7.75;6.45;;;32.60;39.00;;;;;;7400651;19;19922;-75
2023/09/13 12:09:18;;;;;;;8.07;5.35;;;32.70;38.60;;;;;;7402835;19;19982;-75
2023/09/13 12:11:45;;;;;;;7.15;6.25;;;31.80;39.90;;;;;;7403439;19;19925;-75
2023/09/13 12:14:11;;;;;;;6.20;5.60;;;32.30;39.30;;;;;;7403193;19;19919;-75
2023/09/13 12:16:38;;;;;;;7.72;6.18;;;32.30;40.10;;;;;;7405027;19;19933;-73
2023/09/13 12:19:05;;;;;;;7.50;6.32;;;31.90;40.30;;;;;;7398974;19;19915;-74
2023/09/13 12:21:32;;;;;;;7.72;5.95;;;32.40;38.90;;;;;;7405115;19;19948;-74
2023/09/13 12:23:58;;;;;;;7.00;5.53;;;32.80;38.70;;;;;;7402446;19;19911;-75
2023/09/13 12:26:24;;;;;;;7.28;5.25;;;33.00;38.30;;;;;;7404002;19;19919;-74
2023/09/13 12:28:50;;;;;;;7.82;5.72;;;33.70;36.50;;;;;;7404501;19;19914;-75
2023/09/13 12:31:16;;;;;;;7.10;5.80;;;33.80;34.70;;;;;;7400260;19;19926;-75
2023/09/13 12:33:48;;;;;;;8.00;5.97;;;34.00;35.80;;;;;;7403834;19;20347;-74
2023/09/13 12:36:16;;;;;;;8.90;6.43;;;33.50;36.20;;;;;;7401347;19;19918;-75
2023/09/13 12:38:42;;;;;;;12.90;6.80;;;33.90;35.20;;;;;;7399867;19;19922;-75
2023/09/13 12:41:09;;;;;;;11.02;5.80;;;33.40;36.20;;;;;;7399060;19;19918;-74
2023/09/13 12:43:36;;;;;;;8.45;6.70;;;32.70;36.60;;;;;;7400669;19;19922;-76
2023/09/13 12:46:05;;;;;;;5.75;5.10;;;33.60;35.70;;;;;;7401080;19;19943;-75